createdAt,value
2022-10-13T04:45:58.673Z,1006.02
2022-10-13T04:47:00.359Z,1006.01
2022-10-13T04:48:01.221Z,1005.99
2022-10-13T04:48:59.634Z,1005.95
2022-10-13T04:49:59.620Z,1005.94
2022-10-13T04:50:59.625Z,1005.91
2022-10-13T04:51:59.607Z,1005.89
2022-10-13T04:52:59.590Z,1005.88
2022-10-13T04:53:59.585Z,1005.89
2022-10-13T04:54:59.576Z,1005.91
2022-10-13T04:55:59.578Z,1005.91
2022-10-13T04:56:59.555Z,1005.90
2022-10-13T04:57:59.533Z,1005.90
2022-10-13T04:58:59.532Z,1005.89
2022-10-13T04:59:59.514Z,1005.89
2022-10-13T05:00:59.606Z,1005.90
2022-10-13T05:01:59.496Z,1005.88
2022-10-13T05:02:59.494Z,1005.87
2022-10-13T05:03:59.472Z,1005.86
2022-10-13T05:04:59.459Z,1005.84
2022-10-13T05:05:59.459Z,1005.82
2022-10-13T05:07:16.993Z,1005.80
2022-10-13T05:07:59.430Z,1005.78
2022-10-13T05:08:59.426Z,1005.76
2022-10-13T05:09:59.409Z,1005.75
2022-10-13T05:10:59.412Z,1005.75
2022-10-13T05:11:59.388Z,1005.73
2022-10-13T05:12:59.377Z,1005.72
2022-10-13T05:13:59.364Z,1005.70
2022-10-13T05:14:59.354Z,1005.71
2022-10-13T05:15:59.355Z,1005.71
2022-10-13T05:16:59.333Z,1005.71
2022-10-13T05:17:59.314Z,1005.69
2022-10-13T05:18:59.311Z,1005.67
2022-10-13T05:19:59.294Z,1005.69
2022-10-13T05:20:59.319Z,1005.70
2022-10-13T05:21:59.275Z,1005.69
2022-10-13T05:22:59.266Z,1005.68
2022-10-13T05:23:59.248Z,1005.67
2022-10-13T05:24:59.252Z,1005.67
2022-10-13T05:25:59.244Z,1005.64
2022-10-13T05:26:59.251Z,1005.64
2022-10-13T05:27:59.214Z,1005.66
2022-10-13T05:28:59.207Z,1005.67
2022-10-13T05:29:59.192Z,1005.67
2022-10-13T05:30:59.180Z,1005.66
2022-10-13T05:31:59.175Z,1005.66
2022-10-13T05:32:59.160Z,1005.65
2022-10-13T05:33:59.140Z,1005.69
2022-10-13T05:34:59.134Z,1005.69
2022-10-13T05:35:59.128Z,1005.70
2022-10-13T05:36:59.144Z,1005.71
2022-10-13T05:37:59.139Z,1005.71
2022-10-13T05:38:59.135Z,1005.68
2022-10-13T05:39:59.078Z,1005.70
2022-10-13T05:40:59.077Z,1005.70
2022-10-13T05:41:59.073Z,1005.71
2022-10-13T05:42:59.060Z,1005.72
2022-10-13T05:43:59.045Z,1005.72
2022-10-13T05:44:59.062Z,1005.71
2022-10-13T05:45:59.021Z,1005.70
2022-10-13T05:47:01.565Z,1005.70
2022-10-13T05:47:58.998Z,1005.70
2022-10-13T05:48:58.984Z,1005.69
2022-10-13T05:49:58.972Z,1005.69
2022-10-13T05:50:58.964Z,1005.67
2022-10-13T05:51:58.973Z,1005.65
2022-10-13T05:52:58.952Z,1005.64
2022-10-13T05:53:58.926Z,1005.66
2022-10-13T05:54:58.924Z,1005.65
2022-10-13T05:55:58.906Z,1005.67
2022-10-13T05:56:58.914Z,1005.69
2022-10-13T05:57:58.887Z,1005.69
2022-10-13T05:58:58.881Z,1005.69
2022-10-13T05:59:58.872Z,1005.69
2022-10-13T06:00:58.862Z,1005.70
2022-10-13T06:01:58.888Z,1005.69
2022-10-13T06:02:58.841Z,1005.65
2022-10-13T06:03:58.825Z,1005.63
2022-10-13T06:04:58.820Z,1005.60
2022-10-13T06:05:58.809Z,1005.59
2022-10-13T06:06:58.812Z,1005.59
2022-10-13T06:07:58.782Z,1005.60
2022-10-13T06:08:58.771Z,1005.61
2022-10-13T06:09:58.755Z,1005.63
2022-10-13T06:10:58.764Z,1005.61
2022-10-13T06:11:58.736Z,1005.61
2022-10-13T06:12:58.736Z,1005.59
2022-10-13T06:13:58.720Z,1005.55
2022-10-13T06:14:58.706Z,1005.55
2022-10-13T06:15:58.704Z,1005.59
2022-10-13T06:16:58.686Z,1005.57
2022-10-13T06:17:58.675Z,1005.56
2022-10-13T06:18:58.679Z,1005.55
2022-10-13T06:19:58.650Z,1005.53
2022-10-13T06:20:58.661Z,1005.53
2022-10-13T06:22:03.280Z,1005.53
2022-10-13T06:22:58.627Z,1005.53
2022-10-13T06:23:58.610Z,1005.51
2022-10-13T06:24:58.607Z,1005.48
2022-10-13T06:25:58.597Z,1005.48
2022-10-13T06:26:58.582Z,1005.49
2022-10-13T06:27:58.567Z,1005.50
2022-10-13T06:28:59.939Z,1005.46
2022-10-13T06:29:58.549Z,1005.44
2022-10-13T06:30:58.561Z,1005.42
2022-10-13T06:31:58.524Z,1005.40
2022-10-13T06:32:58.515Z,1005.40
2022-10-13T06:33:58.508Z,1005.41
2022-10-13T06:34:58.498Z,1005.42
2022-10-13T06:35:58.502Z,1005.40
2022-10-13T06:36:58.474Z,1005.39
2022-10-13T06:37:58.466Z,1005.42
2022-10-13T06:38:58.455Z,1005.45
2022-10-13T06:39:58.446Z,1005.45
2022-10-13T06:40:58.449Z,1005.47
2022-10-13T06:41:58.425Z,1005.44
2022-10-13T06:42:58.411Z,1005.40
2022-10-13T06:43:58.407Z,1005.39
2022-10-13T06:44:58.388Z,1005.41
2022-10-13T06:45:58.432Z,1005.38
2022-10-13T06:46:58.365Z,1005.38
2022-10-13T06:47:58.362Z,1005.35
2022-10-13T06:48:58.345Z,1005.37
2022-10-13T06:49:58.376Z,1005.36
2022-10-13T06:50:58.351Z,1005.38
2022-10-13T06:51:58.321Z,1005.42
2022-10-13T06:52:58.303Z,1005.43
2022-10-13T06:53:58.313Z,1005.42
2022-10-13T06:54:58.288Z,1005.37
2022-10-13T06:55:58.297Z,1005.37
2022-10-13T06:56:58.261Z,1005.39
2022-10-13T06:57:58.260Z,1005.41
2022-10-13T06:58:58.240Z,1005.42
2022-10-13T06:59:58.242Z,1005.39
2022-10-13T07:00:58.274Z,1005.33
2022-10-13T07:01:58.236Z,1005.28
2022-10-13T07:02:58.202Z,1005.30
2022-10-13T07:03:58.202Z,1005.36
2022-10-13T07:04:58.180Z,1005.38
2022-10-13T07:05:58.197Z,1005.37
2022-10-13T07:06:58.158Z,1005.36
2022-10-13T07:07:58.171Z,1005.32
2022-10-13T07:08:58.143Z,1005.31
2022-10-13T07:09:58.128Z,1005.28
2022-10-13T07:10:58.123Z,1005.28
2022-10-13T07:11:58.106Z,1005.32
2022-10-13T07:12:58.096Z,1005.31
2022-10-13T07:13:58.110Z,1005.28
2022-10-13T07:14:58.072Z,1005.25
2022-10-13T07:15:58.075Z,1005.26
2022-10-13T07:16:58.047Z,1005.30
2022-10-13T07:17:58.049Z,1005.28
2022-10-13T07:18:58.037Z,1005.25
2022-10-13T07:19:58.352Z,1005.25
2022-10-13T07:20:58.025Z,1005.27
2022-10-13T07:21:58.000Z,1005.27
2022-10-13T07:22:57.999Z,1005.26
2022-10-13T07:23:57.984Z,1005.29
2022-10-13T07:24:57.968Z,1005.31
2022-10-13T07:25:57.968Z,1005.31
2022-10-13T07:26:57.947Z,1005.30
2022-10-13T07:27:57.940Z,1005.29
2022-10-13T07:28:58.062Z,1005.28
2022-10-13T07:29:57.919Z,1005.30
2022-10-13T07:30:57.920Z,1005.32
2022-10-13T07:31:57.888Z,1005.29
2022-10-13T07:32:57.878Z,1005.24
2022-10-13T07:33:57.877Z,1005.23
2022-10-13T07:34:57.875Z,1005.30
2022-10-13T07:35:57.844Z,1005.35
2022-10-13T07:36:57.832Z,1005.31
2022-10-13T07:37:57.824Z,1005.27
2022-10-13T07:38:57.806Z,1005.25
2022-10-13T07:39:57.800Z,1005.28
2022-10-13T07:40:57.804Z,1005.30
2022-10-13T07:41:57.812Z,1005.32
2022-10-13T07:42:57.766Z,1005.33
2022-10-13T07:43:57.763Z,1005.33
2022-10-13T07:44:57.750Z,1005.35
2022-10-13T07:45:57.747Z,1005.34
2022-10-13T07:46:57.727Z,1005.35
2022-10-13T07:47:57.713Z,1005.37
2022-10-13T07:48:57.698Z,1005.37
2022-10-13T07:49:57.692Z,1005.37
2022-10-13T07:50:57.692Z,1005.35
2022-10-13T07:51:57.673Z,1005.35
2022-10-13T07:52:57.652Z,1005.34
2022-10-13T07:53:57.648Z,1005.34
2022-10-13T07:54:57.630Z,1005.35
2022-10-13T07:55:57.644Z,1005.35
2022-10-13T07:56:57.614Z,1005.36
2022-10-13T07:57:57.610Z,1005.36
2022-10-13T07:58:57.671Z,1005.35
2022-10-13T07:59:57.578Z,1005.34
2022-10-13T08:00:57.586Z,1005.37
2022-10-13T08:01:57.608Z,1005.40
2022-10-13T08:02:57.545Z,1005.41
2022-10-13T08:03:57.539Z,1005.42
2022-10-13T08:04:57.517Z,1005.42
2022-10-13T08:05:57.532Z,1005.43
2022-10-13T08:06:57.500Z,1005.41
2022-10-13T08:07:58.510Z,1005.42
2022-10-13T08:08:57.480Z,1005.43
2022-10-13T08:09:57.470Z,1005.41
2022-10-13T08:10:57.477Z,1005.40
2022-10-13T08:12:00.783Z,1005.43
2022-10-13T08:12:57.515Z,1005.46
2022-10-13T08:13:57.423Z,1005.48
2022-10-13T08:14:59.397Z,1005.48
2022-10-13T08:16:57.388Z,1005.47
2022-10-13T08:17:57.383Z,1005.43
2022-10-13T08:18:57.370Z,1005.40
2022-10-13T08:19:57.359Z,1005.40
2022-10-13T08:21:23.919Z,1005.41
2022-10-13T08:21:59.199Z,1005.42
2022-10-13T08:22:57.395Z,1005.44
2022-10-13T08:23:57.328Z,1005.41
2022-10-13T08:24:57.314Z,1005.41
2022-10-13T08:25:57.295Z,1005.41
2022-10-13T08:26:57.286Z,1005.35
2022-10-13T08:28:00.453Z,1005.38
2022-10-13T08:29:16.528Z,1005.41
2022-10-13T08:29:57.254Z,1005.43
2022-10-13T08:30:57.389Z,1005.43
2022-10-13T08:31:57.237Z,1005.43
2022-10-13T08:32:57.266Z,1005.43
2022-10-13T08:33:57.216Z,1005.45
2022-10-13T08:34:57.196Z,1005.42
2022-10-13T08:35:57.197Z,1005.43
2022-10-13T08:36:57.182Z,1005.43
2022-10-13T08:37:57.171Z,1005.43
2022-10-13T08:38:57.150Z,1005.43
2022-10-13T08:39:57.144Z,1005.43
2022-10-13T08:40:57.129Z,1005.42
2022-10-13T08:41:57.142Z,1005.42
2022-10-13T08:43:00.418Z,1005.41
2022-10-13T08:44:39.668Z,1005.44
2022-10-13T08:45:39.361Z,1005.44
2022-10-13T08:45:57.089Z,1005.45
2022-10-13T08:46:57.080Z,1005.45
2022-10-13T08:47:57.056Z,1005.44
2022-10-13T08:48:57.049Z,1005.46
2022-10-13T08:50:00.318Z,1005.46
2022-10-13T08:50:57.018Z,1005.47
2022-10-13T08:51:57.031Z,1005.46
2022-10-13T08:52:57.162Z,1005.48
2022-10-13T08:53:57.014Z,1005.50
2022-10-13T08:54:56.976Z,1005.49
2022-10-13T08:55:56.977Z,1005.51
2022-10-13T08:56:57.012Z,1005.49
2022-10-13T08:57:56.955Z,1005.50
2022-10-13T08:58:56.939Z,1005.51
2022-10-13T08:59:56.930Z,1005.50
2022-10-13T09:00:56.912Z,1005.51
2022-10-13T09:01:56.966Z,1005.49
2022-10-13T09:02:56.889Z,1005.49
2022-10-13T09:03:56.882Z,1005.48
2022-10-13T09:04:56.892Z,1005.47
2022-10-13T09:05:56.862Z,1005.45
2022-10-13T09:06:56.856Z,1005.45
2022-10-13T09:07:56.847Z,1005.46
2022-10-13T09:08:56.822Z,1005.48
2022-10-13T09:09:56.816Z,1005.47
2022-10-13T09:10:56.801Z,1005.46
2022-10-13T09:11:56.794Z,1005.44
2022-10-13T09:12:56.791Z,1005.41
2022-10-13T09:13:56.775Z,1005.41
2022-10-13T09:14:56.772Z,1005.40
2022-10-13T09:15:56.758Z,1005.39
2022-10-13T09:16:56.735Z,1005.36
2022-10-13T09:17:56.744Z,1005.38
2022-10-13T09:18:56.716Z,1005.37
2022-10-13T09:19:56.713Z,1005.38
2022-10-13T09:20:56.702Z,1005.39
2022-10-13T09:21:56.694Z,1005.37
2022-10-13T09:22:56.701Z,1005.37
2022-10-13T09:23:56.670Z,1005.36
2022-10-13T09:24:56.649Z,1005.39
2022-10-13T09:25:56.650Z,1005.39
2022-10-13T09:26:56.629Z,1005.40
2022-10-13T09:27:56.641Z,1005.40
2022-10-13T09:28:56.624Z,1005.39
2022-10-13T09:29:56.598Z,1005.41
2022-10-13T09:30:56.582Z,1005.42
2022-10-13T09:31:56.579Z,1005.41
2022-10-13T09:32:56.570Z,1005.44
2022-10-13T09:33:56.557Z,1005.40
2022-10-13T09:34:56.539Z,1005.37
2022-10-13T09:35:56.533Z,1005.33
2022-10-13T09:36:56.523Z,1005.32
2022-10-13T09:37:56.533Z,1005.32
2022-10-13T09:38:56.494Z,1005.29
2022-10-13T09:39:56.495Z,1005.30
2022-10-13T09:40:56.471Z,1005.31
2022-10-13T09:41:56.475Z,1005.29
2022-10-13T09:42:56.470Z,1005.28
2022-10-13T09:43:56.446Z,1005.30
2022-10-13T09:44:56.431Z,1005.29
2022-10-13T09:45:56.437Z,1005.27
2022-10-13T09:46:56.408Z,1005.26
2022-10-13T09:47:56.400Z,1005.26
2022-10-13T09:48:56.403Z,1005.27
2022-10-13T09:49:56.380Z,1005.27
2022-10-13T09:50:56.361Z,1005.26
2022-10-13T09:51:56.363Z,1005.27
2022-10-13T09:52:56.354Z,1005.27
2022-10-13T09:53:56.361Z,1005.28
2022-10-13T09:54:56.319Z,1005.32
2022-10-13T09:55:56.321Z,1005.27
2022-10-13T09:56:56.297Z,1005.29
2022-10-13T09:57:56.290Z,1005.28
2022-10-13T09:58:56.291Z,1005.27
2022-10-13T09:59:56.314Z,1005.26
2022-10-13T10:00:56.256Z,1005.26
2022-10-13T10:01:56.250Z,1005.24
2022-10-13T10:02:56.234Z,1005.23
2022-10-13T10:03:56.289Z,1005.24
2022-10-13T10:04:56.218Z,1005.25
2022-10-13T10:05:56.317Z,1005.23
2022-10-13T10:06:56.186Z,1005.23
2022-10-13T10:07:56.180Z,1005.23
2022-10-13T10:09:04.504Z,1005.23
2022-10-13T10:09:56.164Z,1005.23
2022-10-13T10:10:56.143Z,1005.18
2022-10-13T10:11:56.143Z,1005.17
2022-10-13T10:12:56.119Z,1005.17
2022-10-13T10:13:56.130Z,1005.13
2022-10-13T10:14:56.103Z,1005.09
2022-10-13T10:15:56.099Z,1005.05
2022-10-13T10:16:56.103Z,1005.07
2022-10-13T10:17:56.105Z,1005.07
2022-10-13T10:18:58.737Z,1005.07
2022-10-13T10:19:56.050Z,1005.07
2022-10-13T10:20:56.032Z,1005.05
2022-10-13T10:21:56.026Z,1005.03
2022-10-13T10:22:56.017Z,1005.01
2022-10-13T10:23:56.016Z,1005.05
2022-10-13T10:24:55.991Z,1005.09
2022-10-13T10:25:55.988Z,1005.02
2022-10-13T10:26:55.966Z,1004.98
2022-10-13T10:27:55.962Z,1004.97
2022-10-13T10:28:56.059Z,1004.97
2022-10-13T10:29:55.939Z,1004.97
2022-10-13T10:30:55.921Z,1004.93
2022-10-13T10:31:55.916Z,1004.90
2022-10-13T10:32:55.899Z,1004.85
2022-10-13T10:33:55.909Z,1004.86
2022-10-13T10:34:55.878Z,1004.85
2022-10-13T10:35:55.879Z,1004.84
2022-10-13T10:36:55.868Z,1004.82
2022-10-13T10:37:55.859Z,1004.79
2022-10-13T10:38:55.847Z,1004.82
2022-10-13T10:39:55.835Z,1004.83
2022-10-13T10:40:55.813Z,1004.79
2022-10-13T10:41:55.813Z,1004.77
2022-10-13T10:42:55.792Z,1004.76
2022-10-13T10:43:55.809Z,1004.76
2022-10-13T10:44:55.776Z,1004.77
2022-10-13T10:45:55.764Z,1004.78
2022-10-13T10:46:55.750Z,1004.79
2022-10-13T10:47:55.752Z,1004.77
2022-10-13T10:48:55.746Z,1004.79
2022-10-13T10:49:55.726Z,1004.77
2022-10-13T10:50:55.708Z,1004.79
2022-10-13T10:51:55.703Z,1004.77
2022-10-13T10:52:55.692Z,1004.79
2022-10-13T10:53:55.691Z,1004.78
2022-10-13T10:54:55.669Z,1004.77
2022-10-13T10:55:55.661Z,1004.76
2022-10-13T10:56:55.649Z,1004.75
2022-10-13T10:57:55.638Z,1004.73
2022-10-13T10:58:55.648Z,1004.70
2022-10-13T10:59:55.613Z,1004.69
2022-10-13T11:00:55.615Z,1004.66
2022-10-13T11:01:55.650Z,1004.60
2022-10-13T11:02:55.585Z,1004.61
2022-10-13T11:03:55.584Z,1004.58
2022-10-13T11:04:55.573Z,1004.54
2022-10-13T11:05:55.561Z,1004.56
2022-10-13T11:06:55.544Z,1004.48
2022-10-13T11:07:55.526Z,1004.49
2022-10-13T11:08:55.536Z,1004.46
2022-10-13T11:09:55.507Z,1004.42
2022-10-13T11:10:55.497Z,1004.33
2022-10-13T11:11:55.482Z,1004.44
2022-10-13T11:12:55.477Z,1004.39
2022-10-13T11:13:55.461Z,1004.38
2022-10-13T11:14:55.474Z,1004.36
2022-10-13T11:15:55.441Z,1004.35
2022-10-13T11:16:55.428Z,1004.33
2022-10-13T11:17:55.414Z,1004.32
2022-10-13T11:18:55.417Z,1004.34
2022-10-13T11:19:55.413Z,1004.29
2022-10-13T11:20:55.393Z,1004.32
2022-10-13T11:21:55.370Z,1004.29
2022-10-13T11:22:55.371Z,1004.27
2022-10-13T11:23:59.685Z,1004.28
2022-10-13T11:24:55.365Z,1004.27
2022-10-13T11:25:55.332Z,1004.25
2022-10-13T11:26:55.331Z,1004.25
2022-10-13T11:27:55.314Z,1004.26
2022-10-13T11:28:55.319Z,1004.21
2022-10-13T11:29:55.299Z,1004.22
2022-10-13T11:30:55.295Z,1004.21
2022-10-13T11:31:55.259Z,1004.23
2022-10-13T11:32:55.250Z,1004.20
2022-10-13T11:33:55.235Z,1004.20
2022-10-13T11:34:55.244Z,1004.20
2022-10-13T11:35:55.212Z,1004.16
2022-10-13T11:36:55.207Z,1004.18
2022-10-13T11:38:06.790Z,1004.20
2022-10-13T11:38:55.197Z,1004.12
2022-10-13T11:39:55.182Z,1004.16
2022-10-13T11:40:55.162Z,1004.18
2022-10-13T11:41:55.143Z,1004.20
2022-10-13T11:42:58.305Z,1004.17
2022-10-13T11:43:55.134Z,1004.12
2022-10-13T11:44:55.133Z,1004.14
2022-10-13T11:45:55.102Z,1004.08
2022-10-13T11:46:55.097Z,1004.10
2022-10-13T11:47:55.091Z,1004.10
2022-10-13T11:48:55.073Z,1004.08
2022-10-13T11:49:55.076Z,1004.07
2022-10-13T11:50:55.049Z,1004.06
2022-10-13T11:51:55.042Z,1004.07
2022-10-13T11:52:55.037Z,1004.07
2022-10-13T11:53:55.014Z,1004.05
2022-10-13T11:54:55.038Z,1004.04
2022-10-13T11:55:54.999Z,1004.04
2022-10-13T11:56:54.993Z,1004.03
2022-10-13T11:57:54.974Z,1004.04
2022-10-13T11:58:54.966Z,1004.05
2022-10-13T11:59:54.943Z,1004.02
2022-10-13T12:00:54.970Z,1004.00
2022-10-13T12:01:54.926Z,1003.98
2022-10-13T12:02:54.945Z,1003.99
2022-10-13T12:03:54.901Z,1003.96
2022-10-13T12:04:54.892Z,1003.94
2022-10-13T12:05:54.888Z,1003.93
2022-10-13T12:06:54.869Z,1003.85
2022-10-13T12:07:54.851Z,1003.95
2022-10-13T12:08:54.852Z,1003.92
2022-10-13T12:09:54.840Z,1003.89
2022-10-13T12:10:54.851Z,1003.90
2022-10-13T12:11:54.817Z,1003.84
2022-10-13T12:12:54.802Z,1003.88
2022-10-13T12:13:54.786Z,1003.85
2022-10-13T12:14:54.789Z,1003.85
2022-10-13T12:15:54.786Z,1003.87
2022-10-13T12:17:54.750Z,1003.83
2022-10-13T12:18:54.747Z,1003.85
2022-10-13T12:19:54.724Z,1003.78
2022-10-13T12:20:54.730Z,1003.83
2022-10-13T12:21:54.714Z,1003.83
2022-10-13T12:22:54.695Z,1003.88
2022-10-13T12:23:54.686Z,1003.88
2022-10-13T12:24:54.675Z,1003.85
2022-10-13T12:25:54.688Z,1003.87
2022-10-13T12:26:54.656Z,1003.86
2022-10-13T12:27:54.643Z,1003.87
2022-10-13T12:28:54.738Z,1003.84
2022-10-13T12:29:54.623Z,1003.81
2022-10-13T12:30:54.715Z,1003.79
2022-10-13T12:31:54.609Z,1003.77
2022-10-13T12:32:54.590Z,1003.79
2022-10-13T12:33:54.571Z,1003.79
2022-10-13T12:34:54.562Z,1003.81
2022-10-13T12:35:54.549Z,1003.75
2022-10-13T12:36:54.561Z,1003.74
2022-10-13T12:37:54.536Z,1003.75
2022-10-13T12:38:54.523Z,1003.72
2022-10-13T12:39:54.506Z,1003.72
2022-10-13T12:40:54.508Z,1003.74
2022-10-13T12:41:54.499Z,1003.71
2022-10-13T12:42:54.484Z,1003.72
2022-10-13T12:43:54.484Z,1003.70
2022-10-13T12:44:54.463Z,1003.69
2022-10-13T12:45:54.443Z,1003.68
2022-10-13T12:46:54.455Z,1003.66
2022-10-13T12:47:54.420Z,1003.66
2022-10-13T12:48:54.482Z,1003.62
2022-10-13T12:49:54.397Z,1003.60
2022-10-13T12:50:54.398Z,1003.59
2022-10-13T12:51:54.391Z,1003.62
2022-10-13T12:52:54.379Z,1003.62
2022-10-13T12:53:54.363Z,1003.61
2022-10-13T12:54:54.348Z,1003.65
2022-10-13T12:55:54.339Z,1003.66
2022-10-13T12:56:56.425Z,1003.67
2022-10-13T12:57:54.312Z,1003.68
2022-10-13T12:58:54.310Z,1003.65
2022-10-13T12:59:54.295Z,1003.63
2022-10-13T13:00:54.349Z,1003.72
2022-10-13T13:01:54.286Z,1003.67
2022-10-13T13:02:54.269Z,1003.67
2022-10-13T13:03:54.242Z,1003.68
2022-10-13T13:04:54.237Z,1003.71
2022-10-13T13:05:57.280Z,1003.68
2022-10-13T13:06:54.237Z,1003.67
2022-10-13T13:07:54.203Z,1003.69
2022-10-13T13:08:54.200Z,1003.65
2022-10-13T13:09:54.181Z,1003.66
2022-10-13T13:10:54.172Z,1003.71
2022-10-13T13:11:54.178Z,1003.64
2022-10-13T13:12:54.162Z,1003.64
2022-10-13T13:13:54.137Z,1003.65
2022-10-13T13:14:54.126Z,1003.65
2022-10-13T13:15:54.115Z,1003.62
2022-10-13T13:16:59.020Z,1003.61
2022-10-13T13:17:58.684Z,1003.63
2022-10-13T13:18:54.087Z,1003.61
2022-10-13T13:19:54.069Z,1003.61
2022-10-13T13:20:54.065Z,1003.60
2022-10-13T13:21:54.061Z,1003.63
2022-10-13T13:22:54.038Z,1003.61
2022-10-13T13:23:54.282Z,1003.62
2022-10-13T13:24:54.014Z,1003.61
2022-10-13T13:25:53.998Z,1003.61
2022-10-13T13:26:53.994Z,1003.62
2022-10-13T13:27:53.993Z,1003.61
2022-10-13T13:28:53.974Z,1003.60
2022-10-13T13:29:53.961Z,1003.60
2022-10-13T13:30:54.078Z,1003.61
2022-10-13T13:31:53.934Z,1003.61
2022-10-13T13:32:53.938Z,1003.59
2022-10-13T13:33:53.911Z,1003.59
2022-10-13T13:34:53.905Z,1003.63
2022-10-13T13:35:53.890Z,1003.58
2022-10-13T13:36:53.882Z,1003.61
2022-10-13T13:37:53.885Z,1003.60
2022-10-13T13:38:53.860Z,1003.59
2022-10-13T13:39:53.848Z,1003.56
2022-10-13T13:40:53.838Z,1003.57
2022-10-13T13:41:53.827Z,1003.58
2022-10-13T13:42:53.845Z,1003.59
2022-10-13T13:43:53.800Z,1003.60
2022-10-13T13:44:53.798Z,1003.58
2022-10-13T13:45:53.783Z,1003.57
2022-10-13T13:46:53.778Z,1003.58
2022-10-13T13:47:57.991Z,1003.62
2022-10-13T13:48:53.755Z,1003.59
2022-10-13T13:49:53.733Z,1003.57
2022-10-13T13:50:53.735Z,1003.58
2022-10-13T13:51:53.715Z,1003.59
2022-10-13T13:52:53.724Z,1003.56
2022-10-13T13:53:53.691Z,1003.54
2022-10-13T13:54:53.691Z,1003.55
2022-10-13T13:55:53.674Z,1003.53
2022-10-13T13:56:58.587Z,1003.50
2022-10-13T13:57:53.667Z,1003.51
2022-10-13T13:58:53.644Z,1003.50
2022-10-13T13:59:53.632Z,1003.50
2022-10-13T14:00:53.625Z,1003.48
2022-10-13T14:01:53.723Z,1003.51
2022-10-13T14:02:53.620Z,1003.52
2022-10-13T14:03:53.595Z,1003.50
2022-10-13T14:04:53.579Z,1003.51
2022-10-13T14:05:53.627Z,1003.45
2022-10-13T14:06:53.559Z,1003.49
2022-10-13T14:07:53.554Z,1003.51
2022-10-13T14:08:53.548Z,1003.48
2022-10-13T14:09:56.532Z,1003.47
2022-10-13T14:10:53.527Z,1003.47
2022-10-13T14:11:53.502Z,1003.49
2022-10-13T14:12:53.509Z,1003.48
2022-10-13T14:13:53.481Z,1003.49
2022-10-13T14:14:53.474Z,1003.48
2022-10-13T14:15:53.463Z,1003.48
2022-10-13T14:16:53.457Z,1003.48
2022-10-13T14:17:53.452Z,1003.47
2022-10-13T14:18:53.432Z,1003.48
2022-10-13T14:19:53.420Z,1003.47
2022-10-13T14:20:53.420Z,1003.47
2022-10-13T14:21:53.397Z,1003.48
2022-10-13T14:22:53.402Z,1003.47
2022-10-13T14:23:53.375Z,1003.47
2022-10-13T14:24:53.378Z,1003.47
2022-10-13T14:25:53.357Z,1003.46
2022-10-13T14:26:53.350Z,1003.47
2022-10-13T14:27:53.351Z,1003.46
2022-10-13T14:28:53.369Z,1003.47
2022-10-13T14:29:53.310Z,1003.47
2022-10-13T14:30:53.312Z,1003.51
2022-10-13T14:31:53.289Z,1003.58
2022-10-13T14:32:53.429Z,1003.56
2022-10-13T14:33:54.447Z,1003.59
2022-10-13T14:34:53.268Z,1003.63
2022-10-13T14:35:53.258Z,1003.65
2022-10-13T14:36:53.241Z,1003.67
2022-10-13T14:37:53.241Z,1003.67
2022-10-13T14:38:53.228Z,1003.66
2022-10-13T14:39:53.213Z,1003.68
2022-10-13T14:40:53.195Z,1003.72
2022-10-13T14:41:53.198Z,1003.72
2022-10-13T14:42:53.195Z,1003.72
2022-10-13T14:43:53.166Z,1003.72
2022-10-13T14:44:53.166Z,1003.74
2022-10-13T14:45:53.141Z,1003.77
2022-10-13T14:46:53.145Z,1003.77
2022-10-13T14:47:53.117Z,1003.75
2022-10-13T14:48:53.133Z,1003.77
2022-10-13T14:49:53.100Z,1003.77
2022-10-13T14:50:53.096Z,1003.78
2022-10-13T14:51:53.073Z,1003.78
2022-10-13T14:52:53.062Z,1003.78
2022-10-13T14:53:53.071Z,1003.80
2022-10-13T14:54:53.049Z,1003.81
2022-10-13T14:55:53.036Z,1003.82
2022-10-13T14:56:53.022Z,1003.83
2022-10-13T14:57:53.006Z,1003.83
2022-10-13T14:58:53.014Z,1003.81
2022-10-13T14:59:54.274Z,1003.81
2022-10-13T15:00:52.979Z,1003.80
2022-10-13T15:01:52.965Z,1003.80
2022-10-13T15:02:52.964Z,1003.80
2022-10-13T15:03:53.039Z,1003.80
2022-10-13T15:04:52.938Z,1003.80
2022-10-13T15:05:52.924Z,1003.80
2022-10-13T15:06:52.916Z,1003.82
2022-10-13T15:07:52.906Z,1003.82
2022-10-13T15:08:52.907Z,1003.81
2022-10-13T15:10:04.261Z,1003.81
2022-10-13T15:10:52.873Z,1003.81
2022-10-13T15:11:52.867Z,1003.81
2022-10-13T15:12:52.848Z,1003.79
2022-10-13T15:13:52.857Z,1003.80
2022-10-13T15:14:52.830Z,1003.81
2022-10-13T15:15:52.821Z,1003.81
2022-10-13T15:16:52.803Z,1003.81
2022-10-13T15:17:52.803Z,1003.81
2022-10-13T15:18:52.800Z,1003.80
2022-10-13T15:19:52.785Z,1003.82
2022-10-13T15:20:52.761Z,1003.83
2022-10-13T15:21:52.758Z,1003.83
2022-10-13T15:22:52.741Z,1003.84
2022-10-13T15:23:52.774Z,1003.84
2022-10-13T15:24:52.716Z,1003.84
2022-10-13T15:25:52.712Z,1003.84
2022-10-13T15:26:52.696Z,1003.83
2022-10-13T15:27:52.692Z,1003.82
2022-10-13T15:28:52.856Z,1003.81
2022-10-13T15:29:52.672Z,1003.80
2022-10-13T15:30:52.652Z,1003.79
2022-10-13T15:31:52.655Z,1003.78
2022-10-13T15:32:52.636Z,1003.76
2022-10-13T15:33:52.644Z,1003.74
2022-10-13T15:34:52.618Z,1003.73
2022-10-13T15:35:52.603Z,1003.73
2022-10-13T15:36:52.596Z,1003.72
2022-10-13T15:37:52.586Z,1003.70
2022-10-13T15:38:52.588Z,1003.70
2022-10-13T15:39:57.236Z,1003.69
2022-10-13T15:40:52.551Z,1003.68
2022-10-13T15:41:52.567Z,1003.68
2022-10-13T15:42:52.545Z,1003.65
2022-10-13T15:43:52.531Z,1003.65
2022-10-13T15:45:52.501Z,1003.64
2022-10-13T15:47:07.005Z,1003.64
2022-10-13T15:47:52.483Z,1003.63
2022-10-13T15:48:52.491Z,1003.63
2022-10-13T15:49:52.453Z,1003.62
2022-10-13T15:50:52.440Z,1003.62
2022-10-13T15:51:52.431Z,1003.61
2022-10-13T15:52:52.503Z,1003.59
2022-10-13T15:53:52.413Z,1003.58
2022-10-13T15:54:52.526Z,1003.57
2022-10-13T15:55:52.387Z,1003.57
2022-10-13T15:56:52.378Z,1003.56
2022-10-13T15:57:52.369Z,1003.56
2022-10-13T15:58:52.359Z,1003.55
2022-10-13T15:59:52.355Z,1003.55
2022-10-13T16:00:52.406Z,1003.54
2022-10-13T16:01:52.325Z,1003.54
2022-10-13T16:02:52.309Z,1003.51
2022-10-13T16:03:52.302Z,1003.50
2022-10-13T16:04:52.320Z,1003.49
2022-10-13T16:05:52.279Z,1003.49
2022-10-13T16:06:52.267Z,1003.48
2022-10-13T16:07:52.260Z,1003.48
2022-10-13T16:08:52.243Z,1003.48
2022-10-13T16:09:52.260Z,1003.47
2022-10-13T16:10:52.222Z,1003.48
2022-10-13T16:11:52.216Z,1003.48
2022-10-13T16:12:52.207Z,1003.47
2022-10-13T16:13:52.195Z,1003.47
2022-10-13T16:14:52.201Z,1003.46
2022-10-13T16:15:52.187Z,1003.45
2022-10-13T16:16:52.163Z,1003.45
2022-10-13T16:17:52.159Z,1003.44
2022-10-13T16:18:52.146Z,1003.43
2022-10-13T16:19:52.163Z,1003.43
2022-10-13T16:20:52.119Z,1003.42
2022-10-13T16:21:52.114Z,1003.41
2022-10-13T16:22:52.097Z,1003.40
2022-10-13T16:23:52.089Z,1003.40
2022-10-13T16:24:52.092Z,1003.39
2022-10-13T16:25:52.067Z,1003.40
2022-10-13T16:26:52.052Z,1003.39
2022-10-13T16:27:52.046Z,1003.39
2022-10-13T16:28:52.095Z,1003.38
2022-10-13T16:29:52.046Z,1003.38
2022-10-13T16:30:52.013Z,1003.36
2022-10-13T16:31:52.002Z,1003.36
2022-10-13T16:32:51.988Z,1003.35
2022-10-13T16:33:51.982Z,1003.34
2022-10-13T16:34:51.983Z,1003.34
2022-10-13T16:35:51.961Z,1003.34
2022-10-13T16:36:51.943Z,1003.34
2022-10-13T16:37:51.940Z,1003.35
2022-10-13T16:38:51.930Z,1003.36
2022-10-13T16:39:52.288Z,1003.36
2022-10-13T16:40:51.908Z,1003.36
2022-10-13T16:41:51.896Z,1003.37
2022-10-13T16:42:51.881Z,1003.37
2022-10-13T16:43:51.874Z,1003.38
2022-10-13T16:44:51.889Z,1003.38
2022-10-13T16:45:59.602Z,1003.39
2022-10-13T16:46:51.844Z,1003.40
2022-10-13T16:47:51.830Z,1003.41
2022-10-13T16:48:51.818Z,1003.40
2022-10-13T16:49:51.825Z,1003.40
2022-10-13T16:50:51.797Z,1003.39
2022-10-13T16:51:51.818Z,1003.39
2022-10-13T16:52:51.775Z,1003.38
2022-10-13T16:53:51.782Z,1003.38